createdAt,value
2018-05-24T00:01:40.542Z,58.90
2018-05-24T00:03:44.339Z,58.90
2018-05-24T00:05:48.143Z,58.90
2018-05-24T00:07:51.954Z,58.70
2018-05-24T00:09:54.802Z,58.70
2018-05-24T00:11:58.525Z,58.90
2018-05-24T00:14:02.234Z,58.60
2018-05-24T00:16:05.166Z,58.40
2018-05-24T00:18:08.123Z,58.50
2018-05-24T00:20:11.046Z,58.50
2018-05-24T00:22:14.007Z,58.60
2018-05-24T00:24:17.036Z,58.50
2018-05-24T00:26:20.714Z,58.60
2018-05-24T00:28:23.820Z,58.50
2018-05-24T00:30:26.760Z,58.60
2018-05-24T00:32:29.711Z,58.50
2018-05-24T00:34:32.633Z,58.50
2018-05-24T00:36:35.663Z,58.50
2018-05-24T00:38:38.737Z,58.40
2018-05-24T00:40:42.437Z,58.30
2018-05-24T00:42:45.407Z,58.20
2018-05-24T00:44:49.112Z,58.20
2018-05-24T00:46:52.050Z,58.10
2018-05-24T00:48:55.023Z,58.10
2018-05-24T00:50:57.964Z,58.20
2018-05-24T00:53:01.679Z,58.30
2018-05-24T00:55:17.449Z,58.20
2018-05-24T00:57:21.175Z,58.20
2018-05-24T00:59:24.315Z,58.10
2018-05-24T01:01:27.230Z,58.20
2018-05-24T01:03:30.174Z,58.20
2018-05-24T01:05:33.203Z,58.20
2018-05-24T01:07:36.154Z,58.20
2018-05-24T01:09:39.839Z,58.20
2018-05-24T01:11:42.771Z,58.20
2018-05-24T01:13:45.741Z,58.20
2018-05-24T01:15:48.740Z,58.30
2018-05-24T01:17:51.627Z,58.30
2018-05-24T01:19:54.542Z,58.30
2018-05-24T01:21:57.562Z,58.20
2018-05-24T01:24:00.510Z,58.30
2018-05-24T01:26:04.960Z,58.40
2018-05-24T01:28:08.763Z,58.40
2018-05-24T01:30:12.462Z,58.50
2018-05-24T01:32:15.398Z,58.30
2018-05-24T01:34:18.346Z,58.40
2018-05-24T01:36:21.410Z,58.40
2018-05-24T01:41:16.831Z,58.50
2018-05-24T01:51:49.667Z,58.40
2018-05-24T02:01:47.447Z,58.40
2018-05-24T02:11:49.855Z,59.40
2018-05-24T02:13:53.663Z,63.30
2018-05-24T02:15:56.541Z,63.00
2018-05-24T02:17:59.445Z,62.80
2018-05-24T02:20:03.102Z,62.30
2018-05-24T02:22:05.978Z,62.10
2018-05-24T02:24:08.888Z,61.90
2018-05-24T02:26:11.871Z,61.60
2018-05-24T02:28:14.855Z,61.20
2018-05-24T02:30:17.856Z,61.00
2018-05-24T02:32:22.245Z,60.50
2018-05-24T02:34:25.151Z,60.50
2018-05-24T02:36:28.031Z,60.30
2018-05-24T02:38:31.856Z,60.30
2018-05-24T02:40:35.570Z,60.50
2018-05-24T02:42:38.478Z,59.90
2018-05-24T02:44:41.387Z,59.80
2018-05-24T02:46:45.793Z,59.80
2018-05-24T02:48:48.693Z,59.70
2018-05-24T02:50:52.382Z,59.80
2018-05-24T02:52:55.317Z,59.60
2018-05-24T02:54:58.227Z,59.80
2018-05-24T02:57:01.100Z,59.80
2018-05-24T02:59:03.999Z,59.80
2018-05-24T03:01:06.910Z,59.90
2018-05-24T03:03:10.552Z,59.90
2018-05-24T03:05:13.466Z,59.90
2018-05-24T03:07:16.446Z,59.90
2018-05-24T03:09:19.321Z,59.90
2018-05-24T03:11:22.209Z,59.70
2018-05-24T03:13:25.130Z,59.70
2018-05-24T03:15:28.793Z,59.60
2018-05-24T03:17:32.489Z,59.70
2018-05-24T03:19:35.388Z,59.70
2018-05-24T03:21:39.073Z,59.70
2018-05-24T03:23:42.038Z,59.70
2018-05-24T03:25:44.973Z,59.80
2018-05-24T03:27:47.934Z,59.80
2018-05-24T03:29:51.618Z,60.40
2018-05-24T03:31:54.740Z,59.60
2018-05-24T03:33:58.373Z,59.60
2018-05-24T03:36:01.245Z,59.50
2018-05-24T03:38:04.478Z,59.50
2018-05-24T03:40:08.858Z,59.60
2018-05-24T03:42:11.762Z,59.50
2018-05-24T03:44:14.650Z,59.40
2018-05-24T03:46:17.526Z,59.40
2018-05-24T03:48:21.955Z,59.50
2018-05-24T03:50:24.864Z,59.40
2018-05-24T03:52:28.513Z,59.60
2018-05-24T03:54:31.398Z,59.60
2018-05-24T03:56:34.302Z,59.70
2018-05-24T03:58:37.958Z,60.00
2018-05-24T04:00:52.746Z,59.80
2018-05-24T04:03:09.061Z,60.00
2018-05-24T04:05:12.742Z,59.90
2018-05-24T04:07:15.729Z,59.80
2018-05-24T04:09:19.621Z,60.00
2018-05-24T04:11:22.530Z,60.00
2018-05-24T04:13:25.397Z,60.00
2018-05-24T04:15:28.379Z,60.10
2018-05-24T04:17:31.353Z,60.10
2018-05-24T04:19:35.779Z,60.20
2018-05-24T04:21:40.605Z,60.30
2018-05-24T04:23:43.476Z,60.20
2018-05-24T04:25:46.458Z,60.30
2018-05-24T04:27:49.766Z,60.30
2018-05-24T04:29:54.179Z,60.40
2018-05-24T04:31:57.070Z,60.30
2018-05-24T04:34:00.786Z,60.30
2018-05-24T04:36:04.431Z,60.20
2018-05-24T04:38:07.313Z,60.10
2018-05-24T04:40:10.254Z,60.10
2018-05-24T04:42:13.347Z,60.00
2018-05-24T04:44:17.006Z,60.10
2018-05-24T04:46:21.100Z,60.10
2018-05-24T04:48:23.999Z,60.00
2018-05-24T04:50:26.926Z,60.10
2018-05-24T04:52:29.881Z,60.00
2018-05-24T04:54:33.553Z,60.10
2018-05-24T04:56:36.440Z,60.00
2018-05-24T04:58:39.389Z,60.00
2018-05-24T05:00:42.278Z,60.00
2018-05-24T05:02:45.155Z,60.10
2018-05-24T05:04:48.069Z,60.80
2018-05-24T05:06:51.726Z,60.20
2018-05-24T05:08:54.672Z,60.10
2018-05-24T05:10:58.367Z,60.20
2018-05-24T05:13:02.007Z,60.20
2018-05-24T05:15:04.923Z,60.10
2018-05-24T05:17:07.846Z,60.00
2018-05-24T05:19:10.726Z,60.10
2018-05-24T05:21:13.658Z,60.10
2018-05-24T05:23:18.120Z,60.10
2018-05-24T05:25:20.939Z,60.00
2018-05-24T05:27:23.822Z,60.00
2018-05-24T05:29:26.723Z,60.10
2018-05-24T05:31:29.609Z,60.30
2018-05-24T05:33:32.673Z,60.50
2018-05-24T05:35:36.792Z,61.20
2018-05-24T05:37:39.713Z,60.90
2018-05-24T05:39:43.464Z,61.40
2018-05-24T05:41:46.358Z,61.40
2018-05-24T05:43:50.866Z,61.20
2018-05-24T05:45:53.753Z,61.10
2018-05-24T05:47:56.984Z,61.00
2018-05-24T05:50:00.612Z,60.90
2018-05-24T05:52:03.607Z,60.80
2018-05-24T05:54:07.997Z,60.80
2018-05-24T05:56:10.873Z,60.70
2018-05-24T05:58:13.944Z,60.60
2018-05-24T06:00:17.591Z,60.60
2018-05-24T06:02:20.478Z,60.60
2018-05-24T06:04:23.385Z,60.60
2018-05-24T06:06:27.794Z,60.80
2018-05-24T06:08:32.187Z,61.10
2018-05-24T06:10:35.061Z,61.10
2018-05-24T06:12:37.969Z,61.20
2018-05-24T06:14:40.870Z,61.20
2018-05-24T06:16:43.773Z,61.10
2018-05-24T06:18:46.714Z,61.10
2018-05-24T06:20:51.095Z,60.80
2018-05-24T06:22:53.986Z,60.70
2018-05-24T06:24:58.425Z,60.60
2018-05-24T06:27:01.338Z,60.60
2018-05-24T06:29:04.990Z,60.50
2018-05-24T06:31:07.983Z,60.50
2018-05-24T06:33:10.892Z,60.50
2018-05-24T06:35:14.530Z,61.60
2018-05-24T06:37:17.482Z,60.70
2018-05-24T06:39:21.122Z,61.50
2018-05-24T06:41:24.001Z,60.70
2018-05-24T06:43:26.926Z,60.70
2018-05-24T06:45:30.572Z,60.70
2018-05-24T06:47:33.505Z,60.60
2018-05-24T06:49:37.901Z,60.90
2018-05-24T06:51:42.312Z,60.80
2018-05-24T06:53:45.310Z,60.70
2018-05-24T06:55:48.197Z,60.60
2018-05-24T06:57:51.854Z,60.70
2018-05-24T06:59:54.781Z,60.60
2018-05-24T07:01:57.755Z,60.70
2018-05-24T07:04:01.412Z,60.90
2018-05-24T07:06:04.306Z,60.60
2018-05-24T07:08:07.317Z,60.60
2018-05-24T07:10:10.293Z,60.60
2018-05-24T07:12:13.282Z,60.90
2018-05-24T07:14:16.365Z,61.00
2018-05-24T07:16:20.886Z,60.80
2018-05-24T07:18:25.273Z,60.70
2018-05-24T07:20:28.180Z,60.60
2018-05-24T07:22:31.160Z,60.50
2018-05-24T07:24:34.083Z,60.60
2018-05-24T07:26:36.946Z,60.70
2018-05-24T07:28:40.597Z,60.80
2018-05-24T07:30:43.498Z,61.50
2018-05-24T07:32:46.458Z,60.80
2018-05-24T07:34:49.349Z,60.80
2018-05-24T07:36:52.230Z,60.70
2018-05-24T07:38:55.229Z,60.80
2018-05-24T07:40:58.114Z,60.60
2018-05-24T07:43:00.994Z,60.40
2018-05-24T07:45:04.016Z,60.50
2018-05-24T07:47:07.677Z,60.70
2018-05-24T07:49:10.582Z,60.60
2018-05-24T07:51:14.247Z,61.00
2018-05-24T07:53:18.058Z,60.90
2018-05-24T07:55:21.775Z,60.80
2018-05-24T07:57:25.463Z,60.80
2018-05-24T07:59:29.168Z,60.70
2018-05-24T08:01:32.068Z,60.70
2018-05-24T08:03:35.123Z,60.80
2018-05-24T08:05:39.550Z,60.50
2018-05-24T08:07:42.433Z,60.40
2018-05-24T08:09:46.168Z,60.40
2018-05-24T08:11:49.118Z,60.20
2018-05-24T08:13:52.772Z,60.90
2018-05-24T08:15:55.692Z,60.50
2018-05-24T08:17:58.578Z,60.70
2018-05-24T08:20:02.253Z,60.80
2018-05-24T08:22:05.242Z,60.70
2018-05-24T08:24:08.234Z,60.70
2018-05-24T08:26:11.942Z,60.20
2018-05-24T08:28:15.633Z,60.10
2018-05-24T08:30:18.614Z,60.00
2018-05-24T08:32:21.505Z,60.10
2018-05-24T08:34:25.170Z,60.20
2018-05-24T08:36:28.133Z,60.10
2018-05-24T08:38:31.021Z,60.80
2018-05-24T08:40:33.924Z,60.10
2018-05-24T08:42:36.794Z,60.10
2018-05-24T08:44:40.089Z,60.20
2018-05-24T08:46:42.992Z,60.00
2018-05-24T08:48:45.872Z,59.80
2018-05-24T08:50:48.771Z,59.80
2018-05-24T08:52:52.553Z,60.00
2018-05-24T08:54:55.442Z,59.90
2018-05-24T08:56:59.092Z,59.40
2018-05-24T08:59:02.075Z,59.40
2018-05-24T09:01:05.007Z,59.40
2018-05-24T09:03:07.890Z,59.60
2018-05-24T09:05:11.631Z,59.80
2018-05-24T09:07:14.548Z,59.70
2018-05-24T09:09:18.299Z,59.50
2018-05-24T09:11:21.167Z,60.10
2018-05-24T09:13:24.875Z,59.40
2018-05-24T09:15:28.510Z,59.30
2018-05-24T09:17:31.433Z,59.20
2018-05-24T09:19:35.082Z,59.50
2018-05-24T09:21:39.508Z,59.50
2018-05-24T09:23:42.413Z,59.40
2018-05-24T09:25:45.301Z,59.40
2018-05-24T09:27:48.218Z,59.30
2018-05-24T09:29:52.290Z,59.10
2018-05-24T09:31:56.024Z,58.90
2018-05-24T09:33:59.659Z,58.80
2018-05-24T09:36:02.613Z,58.70
2018-05-24T09:38:05.519Z,58.70
2018-05-24T09:40:08.409Z,58.70
2018-05-24T09:42:11.726Z,58.50
2018-05-24T09:44:14.844Z,58.50
2018-05-24T09:46:18.514Z,58.20
2018-05-24T09:48:22.216Z,58.20
2018-05-24T09:50:25.074Z,58.20
2018-05-24T09:52:27.954Z,58.90
2018-05-24T09:54:30.888Z,58.40
2018-05-24T09:56:34.529Z,58.50
2018-05-24T09:58:37.398Z,58.50
2018-05-24T10:00:40.711Z,58.50
2018-05-24T10:02:43.603Z,58.50
2018-05-24T10:04:46.510Z,58.60
2018-05-24T10:06:49.394Z,58.60
2018-05-24T10:08:52.290Z,58.50
2018-05-24T10:10:55.174Z,58.50
2018-05-24T10:12:58.926Z,58.30
2018-05-24T10:15:01.808Z,58.30
2018-05-24T10:17:05.466Z,58.70
2018-05-24T10:19:08.797Z,58.40
2018-05-24T10:21:11.715Z,58.50
2018-05-24T10:23:15.354Z,58.70
2018-05-24T10:25:18.253Z,58.60
2018-05-24T10:27:21.157Z,58.70
2018-05-24T10:29:24.805Z,58.80
2018-05-24T10:31:28.148Z,58.70
2018-05-24T10:33:31.797Z,58.60
2018-05-24T10:35:34.706Z,58.50
2018-05-24T10:37:38.001Z,58.50
2018-05-24T10:39:40.944Z,58.60
2018-05-24T10:41:43.795Z,58.80
2018-05-24T10:43:47.441Z,58.50
2018-05-24T10:45:51.148Z,58.40
2018-05-24T10:47:54.027Z,58.40
2018-05-24T10:49:56.946Z,58.40
2018-05-24T10:52:00.594Z,58.50
2018-05-24T10:54:03.587Z,58.50
2018-05-24T10:56:06.588Z,58.70
2018-05-24T10:58:09.481Z,59.00
2018-05-24T11:00:13.885Z,59.20
2018-05-24T11:02:16.827Z,59.20
2018-05-24T11:04:19.743Z,59.20
2018-05-24T11:06:22.824Z,59.30
2018-05-24T11:08:25.961Z,59.50
2018-05-24T11:10:29.586Z,59.60
2018-05-24T11:12:32.489Z,59.60
2018-05-24T11:14:35.789Z,59.50
2018-05-24T11:16:38.665Z,59.40
2018-05-24T11:18:41.586Z,59.40
2018-05-24T11:20:45.661Z,59.40
2018-05-24T11:22:49.322Z,59.40
2018-05-24T11:24:52.241Z,59.40
2018-05-24T11:26:55.340Z,59.50
2018-05-24T11:28:59.002Z,59.80
2018-05-24T11:31:01.878Z,59.60
2018-05-24T11:33:05.207Z,60.30
2018-05-24T11:35:08.088Z,60.90
2018-05-24T11:37:11.771Z,62.70
2018-05-24T11:39:14.643Z,62.60
2018-05-24T11:41:17.589Z,63.40
2018-05-24T11:43:20.506Z,63.40
2018-05-24T11:45:23.406Z,63.70
2018-05-24T11:47:26.377Z,64.60
2018-05-24T11:49:29.365Z,65.30
2018-05-24T11:51:32.469Z,65.70
2018-05-24T11:53:36.114Z,66.30
2018-05-24T11:55:38.993Z,66.30
2018-05-24T11:57:41.905Z,66.70
2018-05-24T11:59:44.831Z,67.10
2018-05-24T12:01:48.633Z,67.40
2018-05-24T12:03:53.009Z,67.60
2018-05-24T12:05:55.928Z,67.60
2018-05-24T12:08:00.532Z,68.20
2018-05-24T12:10:03.597Z,68.10
2018-05-24T12:12:07.998Z,68.90
2018-05-24T12:14:10.877Z,68.80
2018-05-24T12:16:13.874Z,69.10
2018-05-24T12:18:16.769Z,69.30
2018-05-24T12:20:19.745Z,69.60
2018-05-24T12:22:23.442Z,70.00
2018-05-24T12:24:26.431Z,70.00
2018-05-24T12:26:29.448Z,69.90
2018-05-24T12:28:33.217Z,69.40
2018-05-24T12:30:36.106Z,69.30
2018-05-24T12:32:39.766Z,69.70
2018-05-24T12:34:42.677Z,69.70
2018-05-24T12:36:46.373Z,70.00
2018-05-24T12:38:50.896Z,70.00
2018-05-24T12:40:53.886Z,69.90
2018-05-24T12:42:57.581Z,69.30
2018-05-24T12:45:01.280Z,69.80
2018-05-24T12:47:04.973Z,68.10
2018-05-24T12:49:07.924Z,68.60
2018-05-24T12:51:11.506Z,69.10
2018-05-24T12:53:14.417Z,68.20
2018-05-24T12:55:17.305Z,67.90
2018-05-24T12:57:20.185Z,67.70
2018-05-24T12:59:23.487Z,67.90
2018-05-24T13:01:26.410Z,67.60
2018-05-24T13:03:29.300Z,67.20
2018-05-24T13:05:32.283Z,66.80
2018-05-24T13:07:35.230Z,66.70
2018-05-24T13:09:38.949Z,66.20
2018-05-24T13:11:42.601Z,65.60
2018-05-24T13:13:45.482Z,65.40
2018-05-24T13:15:48.382Z,65.30
2018-05-24T13:17:51.303Z,65.40
2018-05-24T13:19:54.174Z,65.10
2018-05-24T13:21:57.052Z,65.30
2018-05-24T13:24:00.709Z,64.40
2018-05-24T13:26:03.589Z,64.20
2018-05-24T13:28:06.467Z,64.40
2018-05-24T13:30:09.413Z,64.30
2018-05-24T13:32:12.309Z,63.70
2018-05-24T13:34:15.203Z,63.20
2018-05-24T13:36:18.102Z,62.90
2018-05-24T13:38:20.974Z,62.70
2018-05-24T13:40:23.892Z,62.80
2018-05-24T13:42:26.894Z,62.60
2018-05-24T13:44:29.765Z,62.80
2018-05-24T13:46:32.653Z,63.00
2018-05-24T13:48:35.566Z,63.00
2018-05-24T13:50:39.267Z,62.30
2018-05-24T13:52:42.217Z,62.30
2018-05-24T13:54:45.089Z,62.00
2018-05-24T13:56:49.683Z,62.30
2018-05-24T13:58:52.557Z,62.10
2018-05-24T14:00:55.470Z,62.00
2018-05-24T14:02:59.095Z,61.50
2018-05-24T14:05:01.966Z,61.40
2018-05-24T14:07:04.866Z,61.30
2018-05-24T14:09:07.785Z,61.30
2018-05-24T14:11:12.172Z,61.80
2018-05-24T14:13:15.171Z,61.90
2018-05-24T14:15:18.059Z,62.00
2018-05-24T14:19:25.136Z,61.30
2018-05-24T14:21:28.014Z,60.70
2018-05-24T14:23:30.893Z,60.30
2018-05-24T14:25:33.805Z,60.30
2018-05-24T14:27:37.467Z,60.10
2018-05-24T14:29:40.426Z,60.00
2018-05-24T14:31:43.361Z,59.80
2018-05-24T14:33:46.345Z,59.60
2018-05-24T14:35:49.313Z,59.70
2018-05-24T14:37:52.211Z,59.70
2018-05-24T14:39:55.901Z,59.60
2018-05-24T14:41:58.920Z,59.70
2018-05-24T14:44:02.578Z,58.90
2018-05-24T14:46:05.456Z,58.80
2018-05-24T14:48:08.343Z,58.50
2018-05-24T14:50:11.240Z,58.30
2018-05-24T14:52:14.525Z,58.10
2018-05-24T14:54:17.426Z,57.70
2018-05-24T14:56:20.375Z,57.10
2018-05-24T14:58:24.821Z,56.30
2018-05-24T15:00:28.465Z,56.30
2018-05-24T15:02:31.375Z,56.30
2018-05-24T15:04:34.253Z,56.30
2018-05-24T15:06:37.257Z,56.00
2018-05-24T15:08:40.162Z,55.60
2018-05-24T15:10:43.149Z,55.60
2018-05-24T15:12:46.777Z,55.90
2018-05-24T15:14:49.691Z,55.80
2018-05-24T15:16:53.346Z,56.40
2018-05-24T15:18:57.079Z,57.00
2018-05-24T15:20:59.971Z,56.60
2018-05-24T15:23:03.613Z,56.40
2018-05-24T15:25:06.507Z,56.40
2018-05-24T15:27:09.460Z,56.20
2018-05-24T15:29:13.621Z,55.90
2018-05-24T15:31:16.497Z,55.90
2018-05-24T15:33:19.442Z,55.90
2018-05-24T15:35:23.077Z,55.90
2018-05-24T15:37:25.970Z,55.90
2018-05-24T15:39:28.874Z,56.60
2018-05-24T15:41:32.517Z,57.10
2018-05-24T15:43:35.455Z,56.50
2018-05-24T15:45:39.853Z,56.70
2018-05-24T15:47:42.738Z,56.50
2018-05-24T15:49:45.650Z,56.70
2018-05-24T15:51:49.405Z,56.90
2018-05-24T15:53:52.307Z,56.90
2018-05-24T15:55:55.165Z,56.90
2018-05-24T15:57:58.099Z,57.00
2018-05-24T16:00:01.109Z,57.10
2018-05-24T16:02:04.040Z,57.20
2018-05-24T16:04:07.044Z,57.20
2018-05-24T16:06:10.701Z,57.30
2018-05-24T16:08:13.572Z,57.30
2018-05-24T16:10:16.606Z,57.40
2018-05-24T16:12:20.234Z,57.30
2018-05-24T16:14:23.114Z,57.30
2018-05-24T16:16:26.458Z,57.30
2018-05-24T16:18:30.101Z,57.90
2018-05-24T16:20:33.004Z,57.60
2018-05-24T16:22:35.914Z,57.60
2018-05-24T16:24:38.809Z,57.60
2018-05-24T16:26:42.454Z,57.70
2018-05-24T16:28:45.405Z,57.60
2018-05-24T16:30:48.529Z,57.70
2018-05-24T16:32:51.912Z,57.80
2018-05-24T16:34:55.235Z,57.60
2018-05-24T16:36:58.113Z,57.40
2018-05-24T16:39:00.986Z,57.40
2018-05-24T16:41:03.893Z,57.40
2018-05-24T16:43:06.865Z,57.20
2018-05-24T16:45:09.745Z,56.90
2018-05-24T16:47:12.633Z,56.50
2018-05-24T16:49:15.501Z,56.20
2018-05-24T16:51:18.384Z,55.90
2018-05-24T16:53:21.281Z,55.70
2018-05-24T16:55:24.965Z,55.30
2018-05-24T16:57:27.972Z,55.20
2018-05-24T16:59:30.903Z,55.10
2018-05-24T17:01:33.783Z,55.10
2018-05-24T17:03:36.665Z,55.10
2018-05-24T17:05:39.590Z,55.00
2018-05-24T17:07:43.270Z,54.70
2018-05-24T17:09:46.150Z,54.60
2018-05-24T17:11:49.054Z,55.20
2018-05-24T17:13:52.750Z,54.40
2018-05-24T17:15:56.393Z,54.40
2018-05-24T17:17:59.316Z,54.30
2018-05-24T17:20:02.193Z,54.20
2018-05-24T17:22:05.177Z,54.00
2018-05-24T17:24:08.098Z,53.90
2018-05-24T17:26:11.730Z,53.70
2018-05-24T17:28:14.605Z,53.70
2018-05-24T17:30:18.048Z,53.60
2018-05-24T17:32:20.923Z,53.60
2018-05-24T17:34:24.570Z,54.20
2018-05-24T17:36:27.485Z,53.40
2018-05-24T17:38:30.361Z,53.40
2018-05-24T17:40:33.242Z,53.60
2018-05-24T17:42:36.524Z,53.60
2018-05-24T17:44:39.393Z,53.60
2018-05-24T17:46:42.344Z,53.90
2018-05-24T17:48:46.451Z,53.90
2018-05-24T17:50:49.432Z,53.60
2018-05-24T17:52:53.094Z,53.80
2018-05-24T17:54:56.185Z,53.20
2018-05-24T17:57:00.585Z,53.80
2018-05-24T17:59:03.601Z,53.80
2018-05-24T18:01:07.301Z,54.00
2018-05-24T18:03:10.949Z,54.00
2018-05-24T18:05:13.837Z,54.00
2018-05-24T18:07:16.750Z,53.90
2018-05-24T18:09:19.975Z,53.90
2018-05-24T18:11:22.935Z,53.90
2018-05-24T18:13:26.623Z,54.10
2018-05-24T18:15:30.273Z,54.30
2018-05-24T18:17:33.169Z,54.30
2018-05-24T18:19:36.222Z,54.30
2018-05-24T18:21:39.877Z,54.40
2018-05-24T18:23:42.791Z,54.30
2018-05-24T18:25:45.751Z,54.40
2018-05-24T18:27:48.650Z,54.60
2018-05-24T18:29:52.316Z,54.70
2018-05-24T18:31:55.390Z,54.60
2018-05-24T18:33:58.810Z,54.60
2018-05-24T18:36:02.503Z,55.00
2018-05-24T18:38:05.398Z,55.00
2018-05-24T18:40:09.042Z,55.50
2018-05-24T18:42:11.914Z,55.50
2018-05-24T18:44:14.815Z,55.60
2018-05-24T18:46:17.710Z,55.80
2018-05-24T18:48:20.677Z,56.00
2018-05-24T18:50:23.621Z,56.20
2018-05-24T18:52:27.275Z,56.40
2018-05-24T18:54:30.153Z,56.40
2018-05-24T18:56:33.097Z,56.50
2018-05-24T18:58:36.732Z,56.70
2018-05-24T19:00:39.620Z,56.70
2018-05-24T19:02:42.518Z,56.70
2018-05-24T19:04:45.418Z,57.00
2018-05-24T19:06:49.064Z,57.30
2018-05-24T19:08:51.978Z,57.20
2018-05-24T19:10:55.636Z,57.70
2018-05-24T19:12:58.533Z,57.70
2018-05-24T19:15:01.442Z,57.80
2018-05-24T19:17:05.101Z,58.20
2018-05-24T19:19:07.992Z,58.20
2018-05-24T19:21:10.897Z,58.20
2018-05-24T19:23:13.810Z,58.40
2018-05-24T19:25:16.758Z,58.50
2018-05-24T19:27:20.447Z,59.40
2018-05-24T19:29:23.419Z,58.60
2018-05-24T19:31:26.320Z,58.60
2018-05-24T19:33:29.411Z,58.60
2018-05-24T19:35:33.103Z,58.50
2018-05-24T19:37:35.944Z,58.50
2018-05-24T19:39:38.867Z,58.60
2018-05-24T19:41:41.743Z,58.80
2018-05-24T19:43:44.714Z,58.90
2018-05-24T19:45:48.329Z,59.00
2018-05-24T19:47:51.205Z,58.90
2018-05-24T19:49:55.582Z,59.10
2018-05-24T19:51:58.630Z,59.10
2018-05-24T19:54:02.261Z,59.10
2018-05-24T19:56:05.137Z,59.10
2018-05-24T19:58:08.176Z,59.10
2018-05-24T20:00:11.098Z,59.30
2018-05-24T20:02:14.004Z,59.30
2018-05-24T20:04:16.998Z,59.40
2018-05-24T20:06:19.887Z,59.40
2018-05-24T20:08:22.812Z,59.50
2018-05-24T20:10:26.497Z,59.70
2018-05-24T20:12:30.147Z,59.70
2018-05-24T20:14:33.036Z,59.60
2018-05-24T20:16:36.761Z,59.70
2018-05-24T20:18:39.638Z,59.70
2018-05-24T20:20:42.517Z,59.80
2018-05-24T20:22:45.475Z,59.90
2018-05-24T20:24:48.354Z,59.90
2018-05-24T20:26:51.251Z,59.90
2018-05-24T20:28:54.197Z,60.20
2018-05-24T20:30:57.099Z,60.20
2018-05-24T20:32:59.992Z,60.20
2018-05-24T20:35:02.890Z,60.20
2018-05-24T20:37:05.780Z,60.20
2018-05-24T20:39:09.489Z,60.00
2018-05-24T20:41:12.456Z,60.20
2018-05-24T20:43:15.789Z,60.30
2018-05-24T20:45:18.674Z,60.40
2018-05-24T20:47:21.605Z,60.60
2018-05-24T20:49:24.762Z,60.60
2018-05-24T20:51:27.668Z,60.70
2018-05-24T20:53:30.565Z,60.80
2018-05-24T20:55:34.214Z,61.70
2018-05-24T20:57:37.092Z,60.70
2018-05-24T20:59:40.021Z,60.80
2018-05-24T21:01:43.692Z,61.10
2018-05-24T21:03:46.668Z,60.90
2018-05-24T21:05:49.557Z,61.00
2018-05-24T21:07:52.430Z,61.20
2018-05-24T21:09:55.306Z,61.30
2018-05-24T21:11:58.322Z,61.40
2018-05-24T21:14:01.254Z,61.40
2018-05-24T21:18:01.330Z,61.40
2018-05-24T21:20:04.223Z,61.70
2018-05-24T21:22:07.883Z,61.80
2018-05-24T21:24:12.010Z,61.80
2018-05-24T21:26:14.894Z,61.80
2018-05-24T21:28:17.778Z,61.80
2018-05-24T21:30:22.461Z,62.00
2018-05-24T21:32:25.355Z,61.90
2018-05-24T21:34:28.527Z,62.00
2018-05-24T21:36:31.522Z,62.20
2018-05-24T21:38:34.375Z,62.30
2018-05-24T21:40:37.357Z,62.30
2018-05-24T21:42:41.402Z,61.60
2018-05-24T21:44:44.277Z,62.20
2018-05-24T21:46:47.207Z,62.30
2018-05-24T21:48:50.121Z,62.40
2018-05-24T21:50:53.057Z,63.20
2018-05-24T21:52:56.042Z,62.50
2018-05-24T21:54:58.960Z,62.60
2018-05-24T21:57:01.897Z,62.60
2018-05-24T21:59:04.770Z,62.70
2018-05-24T22:01:07.685Z,62.70
2018-05-24T22:03:11.317Z,62.90
2018-05-24T22:05:14.222Z,62.80
2018-05-24T22:07:17.097Z,62.80
2018-05-24T22:09:19.989Z,62.90
2018-05-24T22:11:22.879Z,63.00
2018-05-24T22:13:25.761Z,63.10
2018-05-24T22:15:28.855Z,63.20
2018-05-24T22:17:31.739Z,63.20
2018-05-24T22:19:35.405Z,63.30
2018-05-24T22:21:38.290Z,63.20
2018-05-24T22:23:41.173Z,63.20
2018-05-24T22:25:44.478Z,63.20
2018-05-24T22:27:48.881Z,63.30
2018-05-24T22:29:51.769Z,63.20
2018-05-24T22:31:56.181Z,63.30
2018-05-24T22:33:59.089Z,63.30
2018-05-24T22:36:02.101Z,63.30
2018-05-24T22:38:05.765Z,63.30
2018-05-24T22:40:09.527Z,64.00
2018-05-24T22:42:13.153Z,63.30
2018-05-24T22:44:17.681Z,63.20
2018-05-24T22:46:21.329Z,64.20
2018-05-24T22:48:24.201Z,63.20
2018-05-24T22:50:27.218Z,63.30
2018-05-24T22:52:30.130Z,63.30
2018-05-24T22:54:33.006Z,63.40
2018-05-24T22:56:35.971Z,63.50
2018-05-24T22:58:38.843Z,63.50
2018-05-24T23:00:41.718Z,63.50
2018-05-24T23:02:44.625Z,63.50
2018-05-24T23:04:47.489Z,63.50
2018-05-24T23:06:50.431Z,63.40
2018-05-24T23:08:54.064Z,63.40
2018-05-24T23:10:56.946Z,63.30
2018-05-24T23:12:59.823Z,63.40
2018-05-24T23:15:02.768Z,63.40
2018-05-24T23:17:06.454Z,63.50
2018-05-24T23:19:10.106Z,63.40
2018-05-24T23:21:13.105Z,63.30
2018-05-24T23:23:16.770Z,63.30
2018-05-24T23:25:19.650Z,63.30
2018-05-24T23:27:22.573Z,63.30
2018-05-24T23:29:25.494Z,63.20
2018-05-24T23:31:28.331Z,63.30
2018-05-24T23:33:31.225Z,63.30
2018-05-24T23:35:34.874Z,64.00
2018-05-24T23:37:37.856Z,63.20
2018-05-24T23:39:41.497Z,63.40
2018-05-24T23:41:44.370Z,63.40
2018-05-24T23:43:48.814Z,63.40
2018-05-24T23:45:52.903Z,63.50
2018-05-24T23:47:55.778Z,63.30
2018-05-24T23:49:58.658Z,63.30
2018-05-24T23:52:01.665Z,63.40
2018-05-24T23:54:05.322Z,63.50
2018-05-24T23:56:08.211Z,63.40
2018-05-24T23:58:11.110Z,63.40
